sensor_id;sensor_type;location;lat;lon;timestamp;pressure;altitude;pressure_sealevel;temperature;humidity
49585;BME280;35491;49.142;9.210;2023-03-25T00:00:37;99239.06;;;10.14;70.00
49585;BME280;35491;49.142;9.210;2023-03-25T00:01:39;99232.72;;;10.07;69.59
49585;BME280;35491;49.142;9.210;2023-03-25T00:02:43;99236.88;;;10.10;69.65
49585;BME280;35491;49.142;9.210;2023-03-25T00:03:44;99238.91;;;10.16;70.11
49585;BME280;35491;49.142;9.210;2023-03-25T00:04:50;99244.59;;;10.13;70.00
49585;BME280;35491;49.142;9.210;2023-03-25T00:05:51;99233.88;;;10.05;69.50
49585;BME280;35491;49.142;9.210;2023-03-25T00:06:55;99245.41;;;10.13;69.59
49585;BME280;35491;49.142;9.210;2023-03-25T00:07:59;99239.38;;;10.11;69.83
49585;BME280;35491;49.142;9.210;2023-03-25T00:09:03;99241.44;;;10.18;69.67
49585;BME280;35491;49.142;9.210;2023-03-25T00:10:05;99237.72;;;10.10;69.66
49585;BME280;35491;49.142;9.210;2023-03-25T00:11:09;99241.41;;;10.09;69.92
49585;BME280;35491;49.142;9.210;2023-03-25T00:12:10;99232.41;;;10.10;69.47
49585;BME280;35491;49.142;9.210;2023-03-25T00:13:13;99233.69;;;10.06;69.51
49585;BME280;35491;49.142;9.210;2023-03-25T00:14:15;99242.03;;;10.03;69.47
49585;BME280;35491;49.142;9.210;2023-03-25T00:15:19;99232.34;;;10.02;68.67
49585;BME280;35491;49.142;9.210;2023-03-25T00:16:21;99230.22;;;10.06;68.90
49585;BME280;35491;49.142;9.210;2023-03-25T00:17:25;99237.19;;;10.07;69.13
49585;BME280;35491;49.142;9.210;2023-03-25T00:18:29;99239.88;;;10.07;69.63
49585;BME280;35491;49.142;9.210;2023-03-25T00:19:33;99236.06;;;10.09;69.23
49585;BME280;35491;49.142;9.210;2023-03-25T00:20:35;99237.19;;;10.07;69.00
49585;BME280;35491;49.142;9.210;2023-03-25T00:21:40;99239.91;;;10.15;69.22
49585;BME280;35491;49.142;9.210;2023-03-25T00:22:44;99230.75;;;10.18;69.39
49585;BME280;35491;49.142;9.210;2023-03-25T00:23:50;99234.22;;;10.18;69.08
49585;BME280;35491;49.142;9.210;2023-03-25T00:24:51;99228.25;;;10.24;68.79
49585;BME280;35491;49.142;9.210;2023-03-25T00:25:55;99229.38;;;10.13;68.65
49585;BME280;35491;49.142;9.210;2023-03-25T00:26:59;99236.72;;;10.11;68.55
49585;BME280;35491;49.142;9.210;2023-03-25T00:28:03;99238.06;;;10.07;67.93
49585;BME280;35491;49.142;9.210;2023-03-25T00:29:04;99228.38;;;10.14;68.22
49585;BME280;35491;49.142;9.210;2023-03-25T00:30:09;99236.88;;;10.10;68.15
49585;BME280;35491;49.142;9.210;2023-03-25T00:31:11;99236.06;;;10.09;68.00
49585;BME280;35491;49.142;9.210;2023-03-25T00:32:15;99240.88;;;10.06;68.16
49585;BME280;35491;49.142;9.210;2023-03-25T00:33:16;99238.06;;;10.07;68.00
49585;BME280;35491;49.142;9.210;2023-03-25T00:34:22;99236.72;;;10.11;67.99
49585;BME280;35491;49.142;9.210;2023-03-25T00:35:23;99235.56;;;10.06;67.54
49585;BME280;35491;49.142;9.210;2023-03-25T00:36:28;99236.06;;;10.09;67.81
49585;BME280;35491;49.142;9.210;2023-03-25T00:37:29;99228.75;;;10.20;67.58
49585;BME280;35491;49.142;9.210;2023-03-25T00:38:33;99235.09;;;10.19;67.74
49585;BME280;35491;49.142;9.210;2023-03-25T00:39:37;99229.75;;;10.19;67.69
49585;BME280;35491;49.142;9.210;2023-03-25T00:40:41;99247.44;;;10.20;67.50
49585;BME280;35491;49.142;9.210;2023-03-25T00:41:42;99234.03;;;10.11;67.15
49585;BME280;35491;49.142;9.210;2023-03-25T00:42:47;99233.41;;;10.18;67.46
49585;BME280;35491;49.142;9.210;2023-03-25T00:43:50;99236.41;;;10.14;67.03
49585;BME280;35491;49.142;9.210;2023-03-25T00:44:54;99232.25;;;10.20;67.33
49585;BME280;35491;49.142;9.210;2023-03-25T00:45:55;99235.09;;;10.19;67.32
49585;BME280;35491;49.142;9.210;2023-03-25T00:46:59;99225.22;;;10.19;67.10
49585;BME280;35491;49.142;9.210;2023-03-25T00:48:00;99231.41;;;10.20;67.17
49585;BME280;35491;49.142;9.210;2023-03-25T00:49:04;99227.38;;;10.15;67.42
49585;BME280;35491;49.142;9.210;2023-03-25T00:50:05;99229.38;;;10.13;67.25
49585;BME280;35491;49.142;9.210;2023-03-25T00:51:09;99220.69;;;10.11;67.35
49585;BME280;35491;49.142;9.210;2023-03-25T00:52:13;99220.03;;;10.09;67.19
49585;BME280;35491;49.142;9.210;2023-03-25T00:53:18;99217.19;;;10.11;67.35
49585;BME280;35491;49.142;9.210;2023-03-25T00:54:19;99222.03;;;10.15;67.32
49585;BME280;35491;49.142;9.210;2023-03-25T00:55:26;99223.53;;;10.10;67.68
49585;BME280;35491;49.142;9.210;2023-03-25T00:56:28;99220.00;;;10.01;67.44
49585;BME280;35491;49.142;9.210;2023-03-25T00:57:32;99220.16;;;9.99;67.22
49585;BME280;35491;49.142;9.210;2023-03-25T00:58:33;99224.50;;;10.01;67.02
49585;BME280;35491;49.142;9.210;2023-03-25T00:59:37;99218.69;;;10.05;67.29
49585;BME280;35491;49.142;9.210;2023-03-25T01:00:38;99222.19;;;10.06;67.08
49585;BME280;35491;49.142;9.210;2023-03-25T01:01:41;99222.22;;;10.14;67.21
49585;BME280;35491;49.142;9.210;2023-03-25T01:02:43;99227.69;;;10.12;66.79
49585;BME280;35491;49.142;9.210;2023-03-25T01:03:48;99222.19;;;10.06;66.71
49585;BME280;35491;49.142;9.210;2023-03-25T01:04:57;99215.19;;;10.05;66.64
49585;BME280;35491;49.142;9.210;2023-03-25T01:06:01;99218.00;;;10.11;66.24
49585;BME280;35491;49.142;9.210;2023-03-25T01:07:02;99225.69;;;10.06;65.87
49585;BME280;35491;49.142;9.210;2023-03-25T01:08:06;99226.50;;;10.07;65.95
49585;BME280;35491;49.142;9.210;2023-03-25T01:09:08;99215.31;;;10.03;66.40
49585;BME280;35491;49.142;9.210;2023-03-25T01:10:13;99215.66;;;10.00;65.94
49585;BME280;35491;49.142;9.210;2023-03-25T01:11:18;99214.19;;;10.06;66.16
49585;BME280;35491;49.142;9.210;2023-03-25T01:12:23;99211.53;;;10.14;65.90
49585;BME280;35491;49.142;9.210;2023-03-25T01:13:25;99209.69;;;10.14;66.14
49585;BME280;35491;49.142;9.210;2023-03-25T01:14:29;99213.03;;;10.17;65.90
49585;BME280;35491;49.142;9.210;2023-03-25T01:15:30;99208.00;;;10.13;66.00
49585;BME280;35491;49.142;9.210;2023-03-25T01:16:34;99215.72;;;10.17;66.02
49585;BME280;35491;49.142;9.210;2023-03-25T01:17:35;99210.19;;;10.10;65.92
49585;BME280;35491;49.142;9.210;2023-03-25T01:18:39;99207.34;;;10.11;66.16
49585;BME280;35491;49.142;9.210;2023-03-25T01:19:40;99205.69;;;10.10;66.11
49585;BME280;35491;49.142;9.210;2023-03-25T01:20:44;99205.69;;;10.10;66.27
49585;BME280;35491;49.142;9.210;2023-03-25T01:21:46;99204.66;;;10.11;66.50
49585;BME280;35491;49.142;9.210;2023-03-25T01:22:49;99205.03;;;10.17;66.23
49585;BME280;35491;49.142;9.210;2023-03-25T01:23:51;99201.00;;;10.12;66.27
49585;BME280;35491;49.142;9.210;2023-03-25T01:24:54;99205.00;;;10.08;66.17
49585;BME280;35491;49.142;9.210;2023-03-25T01:25:56;99197.78;;;10.01;66.22
49585;BME280;35491;49.142;9.210;2023-03-25T01:27:02;99208.84;;;10.06;66.40
49585;BME280;35491;49.142;9.210;2023-03-25T01:28:06;99207.19;;;10.13;66.49
49585;BME280;35491;49.142;9.210;2023-03-25T01:29:07;99197.69;;;10.19;66.40
49585;BME280;35491;49.142;9.210;2023-03-25T01:30:12;99201.50;;;10.16;66.70
49585;BME280;35491;49.142;9.210;2023-03-25T01:31:13;99195.81;;;10.11;66.50
49585;BME280;35491;49.142;9.210;2023-03-25T01:32:17;99192.66;;;10.15;66.33
49585;BME280;35491;49.142;9.210;2023-03-25T01:33:18;99200.03;;;10.22;66.36
49585;BME280;35491;49.142;9.210;2023-03-25T01:34:22;99197.03;;;10.25;66.33
49585;BME280;35491;49.142;9.210;2023-03-25T01:35:23;99190.00;;;10.24;66.01
49585;BME280;35491;49.142;9.210;2023-03-25T01:36:27;99198.84;;;10.16;66.08
49585;BME280;35491;49.142;9.210;2023-03-25T01:37:30;99191.19;;;10.21;66.27
49585;BME280;35491;49.142;9.210;2023-03-25T01:38:36;99197.81;;;10.09;66.53
49585;BME280;35491;49.142;9.210;2023-03-25T01:39:37;99191.69;;;10.17;66.11
49585;BME280;35491;49.142;9.210;2023-03-25T01:40:41;99192.00;;;10.22;66.32
49585;BME280;35491;49.142;9.210;2023-03-25T01:41:46;99193.19;;;10.19;66.15
49585;BME280;35491;49.142;9.210;2023-03-25T01:42:53;99196.50;;;10.13;65.70
49585;BME280;35491;49.142;9.210;2023-03-25T01:44:01;99184.84;;;10.14;66.15
49585;BME280;35491;49.142;9.210;2023-03-25T01:46:20;99185.31;;;10.09;65.63
49585;BME280;35491;49.142;9.210;2023-03-25T01:47:24;99185.66;;;10.14;66.15
49585;BME280;35491;49.142;9.210;2023-03-25T01:48:26;99175.63;;;10.08;66.05
49585;BME280;35491;49.142;9.210;2023-03-25T01:49:33;99183.78;;;10.07;66.04
49585;BME280;35491;49.142;9.210;2023-03-25T01:50:39;99182.97;;;10.06;66.15
49585;BME280;35491;49.142;9.210;2023-03-25T20:08:59;99397.28;;;10.69;66.05
49585;BME280;35491;49.142;9.210;2023-03-25T20:10:06;99392.84;;;10.52;67.84
49585;BME280;35491;49.142;9.210;2023-03-25T20:14:35;99393.91;;;10.33;69.43
49585;BME280;35491;49.142;9.210;2023-03-25T20:15:44;99392.72;;;10.27;69.02
49585;BME280;35491;49.142;9.210;2023-03-25T20:16:51;99391.56;;;10.29;68.36
49585;BME280;35491;49.142;9.210;2023-03-25T20:18:01;99384.38;;;10.30;68.63
49585;BME280;35491;49.142;9.210;2023-03-25T20:19:03;99383.06;;;10.34;68.21
49585;BME280;35491;49.142;9.210;2023-03-25T20:49:08;99400.16;;;9.89;68.52
49585;BME280;35491;49.142;9.210;2023-03-25T20:50:15;99403.34;;;9.92;68.25
49585;BME280;35491;49.142;9.210;2023-03-25T20:53:57;99416.47;;;9.86;68.33
49585;BME280;35491;49.142;9.210;2023-03-25T20:55:17;99420.38;;;9.73;67.72
49585;BME280;35491;49.142;9.210;2023-03-25T20:56:34;99399.59;;;9.59;66.83
49585;BME280;35491;49.142;9.210;2023-03-25T20:57:40;99399.69;;;9.49;67.05
49585;BME280;35491;49.142;9.210;2023-03-25T20:58:41;99391.53;;;9.50;67.14
49585;BME280;35491;49.142;9.210;2023-03-25T20:59:49;99390.06;;;9.56;67.05
49585;BME280;35491;49.142;9.210;2023-03-25T21:01:05;99385.56;;;9.57;66.92
49585;BME280;35491;49.142;9.210;2023-03-25T21:02:20;99383.69;;;9.49;66.45
49585;BME280;35491;49.142;9.210;2023-03-25T21:03:21;99380.78;;;9.42;66.65
49585;BME280;35491;49.142;9.210;2023-03-25T21:07:40;99381.75;;;9.59;65.49
49585;BME280;35491;49.142;9.210;2023-03-25T21:09:02;99392.88;;;9.55;64.59
49585;BME280;35491;49.142;9.210;2023-03-25T21:10:17;99392.63;;;9.66;65.04
49585;BME280;35491;49.142;9.210;2023-03-25T21:11:45;99395.06;;;9.77;64.71
49585;BME280;35491;49.142;9.210;2023-03-25T21:13:10;99393.84;;;9.72;64.11
49585;BME280;35491;49.142;9.210;2023-03-25T21:14:27;99384.38;;;9.77;64.55
49585;BME280;35491;49.142;9.210;2023-03-25T21:16:57;99398.84;;;9.66;65.01
49585;BME280;35491;49.142;9.210;2023-03-25T21:19:51;99400.09;;;9.80;65.00
49585;BME280;35491;49.142;9.210;2023-03-25T21:20:55;99386.13;;;9.87;64.97
49585;BME280;35491;49.142;9.210;2023-03-25T21:22:01;99397.50;;;9.71;65.09
49585;BME280;35491;49.142;9.210;2023-03-25T21:23:05;99394.78;;;9.62;65.56
49585;BME280;35491;49.142;9.210;2023-03-25T21:24:09;99394.38;;;9.75;65.06
49585;BME280;35491;49.142;9.210;2023-03-25T21:25:11;99392.69;;;9.74;65.41
49585;BME280;35491;49.142;9.210;2023-03-25T21:26:20;99395.63;;;9.63;65.65
49585;BME280;35491;49.142;9.210;2023-03-25T21:32:07;99384.88;;;9.55;67.57
49585;BME280;35491;49.142;9.210;2023-03-25T21:34:45;99387.94;;;9.60;67.40
49585;BME280;35491;49.142;9.210;2023-03-25T21:37:23;99387.69;;;9.71;66.37
49585;BME280;35491;49.142;9.210;2023-03-25T21:38:30;99402.03;;;9.70;66.28
49585;BME280;35491;49.142;9.210;2023-03-25T21:41:03;99400.06;;;9.72;65.94
49585;BME280;35491;49.142;9.210;2023-03-25T21:42:07;99407.38;;;9.70;65.78
49585;BME280;35491;49.142;9.210;2023-03-25T21:43:08;99407.72;;;9.75;65.46
49585;BME280;35491;49.142;9.210;2023-03-25T21:44:12;99416.06;;;9.72;65.05
49585;BME280;35491;49.142;9.210;2023-03-25T21:45:15;99402.16;;;9.68;64.90
49585;BME280;35491;49.142;9.210;2023-03-25T21:46:19;99422.00;;;9.66;64.99
49585;BME280;35491;49.142;9.210;2023-03-25T21:47:23;99420.25;;;9.75;64.77
49585;BME280;35491;49.142;9.210;2023-03-25T21:48:27;99426.47;;;9.83;64.99
49585;BME280;35491;49.142;9.210;2023-03-25T21:49:29;99420.25;;;9.75;64.59
49585;BME280;35491;49.142;9.210;2023-03-25T21:50:33;99419.50;;;9.64;64.65
49585;BME280;35491;49.142;9.210;2023-03-25T21:51:35;99415.31;;;9.62;65.26
49585;BME280;35491;49.142;9.210;2023-03-25T21:52:43;99422.09;;;9.56;65.40
49585;BME280;35491;49.142;9.210;2023-03-25T21:53:48;99436.19;;;9.48;65.24
49585;BME280;35491;49.142;9.210;2023-03-25T21:54:52;99434.16;;;9.42;65.93
49585;BME280;35491;49.142;9.210;2023-03-25T21:55:54;99435.56;;;9.55;65.55
49585;BME280;35491;49.142;9.210;2023-03-25T21:56:59;99438.94;;;9.57;65.96
49585;BME280;35491;49.142;9.210;2023-03-25T21:58:03;99429.31;;;9.64;65.65
49585;BME280;35491;49.142;9.210;2023-03-25T21:59:09;99425.66;;;9.65;66.04
49585;BME280;35491;49.142;9.210;2023-03-25T22:00:14;99421.56;;;9.52;66.43
49585;BME280;35491;49.142;9.210;2023-03-25T22:01:17;99418.56;;;9.56;66.57
49585;BME280;35491;49.142;9.210;2023-03-25T22:02:22;99429.13;;;9.57;66.46
49585;BME280;35491;49.142;9.210;2023-03-25T22:03:25;99420.34;;;9.47;66.18
49585;BME280;35491;49.142;9.210;2023-03-25T22:04:34;99420.66;;;9.44;66.19
49585;BME280;35491;49.142;9.210;2023-03-25T22:05:37;99436.50;;;9.45;66.38
49585;BME280;35491;49.142;9.210;2023-03-25T22:06:40;99426.97;;;9.43;66.73
49585;BME280;35491;49.142;9.210;2023-03-25T22:07:42;99428.28;;;9.39;66.86
49585;BME280;35491;49.142;9.210;2023-03-25T22:08:48;99432.00;;;9.28;67.31
49585;BME280;35491;49.142;9.210;2023-03-25T22:09:49;99434.00;;;9.26;67.73
49585;BME280;35491;49.142;9.210;2023-03-25T22:10:59;99432.38;;;9.33;67.73
49585;BME280;35491;49.142;9.210;2023-03-25T22:12:00;99435.06;;;9.33;67.47
49585;BME280;35491;49.142;9.210;2023-03-25T22:13:04;99425.75;;;9.37;67.35
49585;BME280;35491;49.142;9.210;2023-03-25T22:14:05;99423.47;;;9.24;67.66
49585;BME280;35491;49.142;9.210;2023-03-25T22:15:10;99426.81;;;9.26;67.87
49585;BME280;35491;49.142;9.210;2023-03-25T22:16:12;99429.72;;;9.33;67.57
49585;BME280;35491;49.142;9.210;2023-03-25T22:17:16;99425.13;;;9.25;68.20
49585;BME280;35491;49.142;9.210;2023-03-25T22:18:17;99441.09;;;9.35;67.82
49585;BME280;35491;49.142;9.210;2023-03-25T22:19:21;99422.94;;;9.39;67.92
49585;BME280;35491;49.142;9.210;2023-03-25T22:20:22;99437.25;;;9.19;69.05
49585;BME280;35491;49.142;9.210;2023-03-25T22:21:26;99425.34;;;9.14;69.90
49585;BME280;35491;49.142;9.210;2023-03-25T22:22:29;99439.28;;;9.08;71.06
49585;BME280;35491;49.142;9.210;2023-03-25T22:23:32;99430.69;;;8.96;71.78
49585;BME280;35491;49.142;9.210;2023-03-25T22:24:36;99426.63;;;8.92;72.29
49585;BME280;35491;49.142;9.210;2023-03-25T22:25:40;99421.63;;;8.79;73.21
49585;BME280;35491;49.142;9.210;2023-03-25T22:26:41;99425.44;;;8.76;73.51
49585;BME280;35491;49.142;9.210;2023-03-25T22:27:45;99429.69;;;8.69;73.89
49585;BME280;35491;49.142;9.210;2023-03-25T22:28:46;99414.16;;;8.64;73.95
49585;BME280;35491;49.142;9.210;2023-03-25T22:29:50;99418.25;;;8.58;74.46
49585;BME280;35491;49.142;9.210;2023-03-25T22:30:55;99410.81;;;8.52;74.90
49585;BME280;35491;49.142;9.210;2023-03-25T22:31:56;99412.13;;;8.48;75.10
49585;BME280;35491;49.142;9.210;2023-03-25T22:33:06;99392.97;;;8.63;75.21
49585;BME280;35491;49.142;9.210;2023-03-25T22:34:08;99399.44;;;8.60;75.41
49585;BME280;35491;49.142;9.210;2023-03-25T22:35:15;99397.16;;;8.65;74.60
49585;BME280;35491;49.142;9.210;2023-03-25T22:36:16;99398.72;;;8.58;74.78
49585;BME280;35491;49.142;9.210;2023-03-25T22:37:20;99396.22;;;8.56;75.29
49585;BME280;35491;49.142;9.210;2023-03-25T22:38:22;99397.50;;;8.52;74.51
49585;BME280;35491;49.142;9.210;2023-03-25T22:39:25;99400.84;;;8.54;74.19
49585;BME280;35491;49.142;9.210;2023-03-25T22:40:30;99403.69;;;8.53;74.23
49585;BME280;35491;49.142;9.210;2023-03-25T22:41:34;99403.16;;;8.49;74.25
49585;BME280;35491;49.142;9.210;2023-03-25T22:42:36;99399.72;;;8.57;74.26
49585;BME280;35491;49.142;9.210;2023-03-25T22:43:39;99407.44;;;8.60;74.29
49585;BME280;35491;49.142;9.210;2023-03-25T22:44:40;99404.47;;;8.63;74.28
49585;BME280;35491;49.142;9.210;2023-03-25T22:45:45;99397.47;;;8.62;74.53
49585;BME280;35491;49.142;9.210;2023-03-25T22:46:46;99405.72;;;8.69;74.86
49585;BME280;35491;49.142;9.210;2023-03-25T22:49:03;99397.03;;;8.67;74.94
49585;BME280;35491;49.142;9.210;2023-03-25T22:50:09;99398.00;;;8.66;74.72
49585;BME280;35491;49.142;9.210;2023-03-25T22:51:11;99404.75;;;8.60;75.20
49585;BME280;35491;49.142;9.210;2023-03-25T22:52:15;99396.06;;;8.58;75.24
49585;BME280;35491;49.142;9.210;2023-03-25T22:53:16;99397.41;;;8.72;74.62
49585;BME280;35491;49.142;9.210;2023-03-25T22:54:22;99397.13;;;8.75;74.39
49585;BME280;35491;49.142;9.210;2023-03-25T22:55:23;99407.06;;;8.73;74.78
49585;BME280;35491;49.142;9.210;2023-03-25T22:56:29;99413.34;;;8.82;74.11
49585;BME280;35491;49.142;9.210;2023-03-25T22:57:33;99409.13;;;8.79;74.46
49585;BME280;35491;49.142;9.210;2023-03-25T22:58:39;99404.91;;;8.86;74.01
49585;BME280;35491;49.142;9.210;2023-03-25T22:59:40;99399.97;;;8.92;74.07
49585;BME280;35491;49.142;9.210;2023-03-25T23:00:44;99407.25;;;8.89;74.20
49585;BME280;35491;49.142;9.210;2023-03-25T23:01:54;99406.03;;;8.84;74.03
49585;BME280;35491;49.142;9.210;2023-03-25T23:03:55;99406.19;;;8.82;74.11
